Time;durP1;ratioP1;P1;durP2;ratioP2;P2;SDS_P1;SDS_P2;PMS_P1;PMS_P2;Temp;Humidity;BMP_temperature;BMP_pressure;BME280_temperature;BME280_humidity;BME280_pressure;Samples;Min_cycle;Max_cycle;Signal;HPM_P1;HPM_P2
2021/06/05 07:55:21;;;;;;;40.28;9.82;;;;;;;22.22;46.80;99730.84;5130031;27;20395;-62
2021/06/05 07:58:07;;;;;;;22.88;7.95;;;;;;;22.49;44.94;99738.50;5129176;27;20352;-61
2021/06/05 08:00:33;;;;;;;21.27;8.13;;;;;;;22.53;44.08;99734.78;5104821;28;20032;-59
2021/06/05 08:02:59;;;;;;;22.42;6.97;;;;;;;22.63;44.05;99734.34;5105098;28;20023;-58
2021/06/05 08:05:24;;;;;;;17.88;7.28;;;;;;;22.76;46.03;99732.78;5108249;28;20451;-64
2021/06/05 08:07:50;;;;;;;15.23;6.85;;;;;;;22.86;43.87;99719.94;5092018;28;20032;-54
2021/06/05 08:10:16;;;;;;;13.85;7.10;;;;;;;22.98;43.22;99725.50;5068524;27;20032;-52
2021/06/05 08:12:42;;;;;;;15.85;7.15;;;;;;;23.07;42.61;99712.72;4860245;28;58815;-66
2021/06/05 08:15:10;;;;;;;16.77;6.82;;;;;;;23.12;42.47;99706.25;5074113;28;20036;-66
2021/06/05 08:17:35;;;;;;;13.13;6.75;;;;;;;23.17;42.91;99711.34;5021033;28;20071;-67
2021/06/05 08:20:01;;;;;;;12.25;7.20;;;;;;;23.22;42.95;99711.94;5068302;28;20078;-65
2021/06/05 08:22:27;;;;;;;16.63;6.68;;;;;;;23.28;42.53;99711.63;5007679;28;70895;-69
2021/06/05 08:26:04;;;;;;;10.88;6.28;;;;;;;23.36;42.59;99709.47;4899386;27;20138;-53
2021/06/05 08:28:31;;;;;;;18.75;6.70;;;;;;;23.26;41.76;99710.84;5069948;28;20051;-75
2021/06/05 08:30:58;;;;;;;13.95;6.18;;;;;;;23.15;42.29;99713.22;5069469;28;20044;-74
2021/06/05 08:33:24;;;;;;;14.90;6.30;;;;;;;22.78;42.49;99717.66;5069528;28;20067;-64
2021/06/05 08:35:50;;;;;;;10.05;6.00;;;;;;;22.50;43.59;99724.28;5069410;28;20492;-62
2021/06/05 08:38:18;;;;;;;12.48;5.93;;;;;;;21.92;44.55;99721.63;5068685;28;20045;-63
2021/06/05 08:40:46;;;;;;;19.50;6.05;;;;;;;21.37;45.62;99719.59;5068051;28;20466;-62
2021/06/05 08:43:17;;;;;;;10.73;5.97;;;;;;;21.00;46.84;99714.03;5069272;28;20098;-63
2021/06/05 08:45:43;;;;;;;12.40;6.18;;;;;;;20.65;47.79;99720.78;5061796;28;20048;-63
2021/06/05 08:48:15;;;;;;;9.88;5.53;;;;;;;20.51;47.87;99723.94;5052745;28;20048;-63
2021/06/05 08:50:41;;;;;;;19.85;6.40;;;;;;;20.73;47.57;99725.78;5065325;28;20099;-63
2021/06/05 08:53:09;;;;;;;12.95;6.10;;;;;;;20.86;47.39;99721.72;5049290;28;20447;-64
2021/06/05 08:55:38;;;;;;;12.68;6.07;;;;;;;20.86;47.18;99697.88;5068611;28;20049;-63
2021/06/05 08:58:11;;;;;;;12.15;6.65;;;;;;;21.09;46.37;99704.84;5068680;28;20053;-63
2021/06/05 09:00:41;;;;;;;12.43;6.20;;;;;;;21.47;45.68;99701.53;5069119;28;20049;-63
2021/06/05 09:03:09;;;;;;;11.98;6.10;;;;;;;21.72;45.12;99709.28;5068809;28;20078;-73
2021/06/05 09:05:40;;;;;;;12.68;6.00;;;;;;;22.29;43.68;99720.00;5068415;28;20048;-71
2021/06/05 09:08:06;;;;;;;9.48;6.03;;;;;;;23.17;41.59;99725.50;5053055;28;20041;-71
2021/06/05 09:10:33;;;;;;;11.32;5.97;;;;;;;23.38;41.24;99728.88;5068780;28;20045;-71
2021/06/05 09:12:59;;;;;;;12.13;5.85;;;;;;;23.06;42.05;99732.28;5068284;28;20048;-72
2021/06/05 09:15:28;;;;;;;9.82;5.80;;;;;;;22.80;42.60;99735.25;5068074;28;20055;-71
2021/06/05 09:17:59;;;;;;;9.82;6.18;;;;;;;22.84;42.38;99722.69;5068138;28;20053;-72
2021/06/05 09:20:33;;;;;;;14.43;6.00;;;;;;;23.25;42.11;99722.44;5068261;28;20098;-70
2021/06/05 09:23:00;;;;;;;11.10;6.07;;;;;;;22.61;42.97;99732.59;5068390;28;20506;-68
2021/06/05 09:27:34;;;;;;;11.13;5.60;;;;;;;22.57;43.19;99728.38;4995125;28;20413;-62
2021/06/05 09:30:02;;;;;;;17.35;5.80;;;;;;;22.38;43.63;99735.50;5056513;28;20044;-63
2021/06/05 09:32:29;;;;;;;10.07;5.80;;;;;;;21.97;44.31;99724.97;5016966;28;77287;-63
2021/06/05 09:34:56;;;;;;;10.82;5.60;;;;;;;21.83;44.80;99726.44;5002027;27;20049;-63
2021/06/05 09:37:28;;;;;;;9.75;5.82;;;;;;;21.91;44.85;99714.63;5077360;28;20059;-64
2021/06/05 09:40:17;;;;;;;10.82;5.60;;;;;;;21.58;45.17;99710.75;5075733;28;20170;-65
2021/06/05 09:42:45;;;;;;;11.10;5.35;;;;;;;21.77;44.88;99700.19;5079843;28;20044;-66
2021/06/05 09:45:24;;;;;;;9.02;5.45;;;;;;;21.92;44.97;99701.28;5078221;28;20487;-65
2021/06/05 09:47:50;;;;;;;10.55;5.80;;;;;;;21.83;45.01;99699.91;5072113;28;20385;-65
2021/06/05 09:50:20;;;;;;;11.00;5.78;;;;;;;21.97;44.78;99703.72;5079026;28;20530;-65
2021/06/05 09:52:47;;;;;;;9.00;6.00;;;;;;;21.98;44.88;99701.03;5074646;28;20052;-65
2021/06/05 09:55:29;;;;;;;10.27;5.70;;;;;;;22.82;43.91;99697.97;5076951;28;20503;-65
2021/06/05 09:57:59;;;;;;;9.23;5.78;;;;;;;23.40;42.01;99691.56;5073651;28;20044;-64
2021/06/05 10:00:27;;;;;;;12.18;5.88;;;;;;;24.13;40.78;99681.47;5083780;28;20044;-64
2021/06/05 10:02:57;;;;;;;9.73;5.35;;;;;;;24.84;39.82;99682.84;5068430;28;20051;-61
2021/06/05 10:05:28;;;;;;;9.65;5.40;;;;;;;24.99;39.16;99680.25;5068713;28;20072;-61
2021/06/05 10:07:55;;;;;;;10.77;5.60;;;;;;;24.89;39.34;99682.56;5068678;28;20043;-61
2021/06/05 10:10:33;;;;;;;9.38;5.40;;;;;;;24.75;39.26;99689.56;5068150;28;20051;-62
2021/06/05 10:13:03;;;;;;;9.75;5.50;;;;;;;24.48;39.31;99691.97;5068573;28;20049;-62
2021/06/05 10:15:32;;;;;;;8.93;5.47;;;;;;;24.27;40.23;99679.84;5068483;28;20052;-62
2021/06/05 10:18:00;;;;;;;11.43;5.57;;;;;;;24.18;40.21;99682.09;5068417;28;20040;-62
2021/06/05 10:20:34;;;;;;;9.52;5.40;;;;;;;23.94;40.53;99678.09;5068136;28;20049;-62
2021/06/05 10:23:00;;;;;;;10.02;5.60;;;;;;;23.72;40.90;99675.69;5067827;28;20545;-62
2021/06/05 10:25:31;;;;;;;9.55;5.50;;;;;;;23.51;41.94;99680.34;5066755;28;20057;-63
2021/06/05 10:27:58;;;;;;;8.80;5.70;;;;;;;23.24;42.46;99683.50;5068283;28;20056;-62
2021/06/05 10:30:31;;;;;;;10.35;5.60;;;;;;;23.04;42.70;99686.31;5068153;28;20052;-61
2021/06/05 10:32:58;;;;;;;11.30;5.87;;;;;;;22.85;43.41;99683.69;5068522;28;20052;-62
2021/06/05 10:35:27;;;;;;;9.90;6.00;;;;;;;22.55;43.56;99700.19;5067866;28;20450;-62
2021/06/05 10:37:54;;;;;;;12.18;5.97;;;;;;;22.33;43.96;99700.31;5059556;28;20041;-62
2021/06/05 10:40:22;;;;;;;9.63;6.05;;;;;;;22.07;44.50;99704.19;5054827;28;20049;-62
2021/06/05 10:42:49;;;;;;;13.20;6.22;;;;;;;22.07;44.95;99702.38;5054914;28;20045;-62
2021/06/05 10:45:17;;;;;;;9.80;5.60;;;;;;;22.10;45.26;99701.38;5055038;28;20049;-62
2021/06/05 10:47:49;;;;;;;13.18;6.80;;;;;;;22.01;45.53;99708.81;5054985;28;20091;-62
2021/06/05 10:50:18;;;;;;;9.68;5.90;;;;;;;21.90;45.52;99696.97;5054756;28;20049;-62
2021/06/05 10:52:47;;;;;;;12.50;6.10;;;;;;;21.72;46.55;99707.47;5054663;28;20410;-68
2021/06/05 10:55:14;;;;;;;11.07;5.65;;;;;;;21.51;47.08;99703.97;5054650;28;20395;-63
2021/06/05 10:57:41;;;;;;;10.45;6.20;;;;;;;21.19;47.92;99705.31;5054293;28;20476;-63
2021/06/05 11:00:24;;;;;;;11.38;5.80;;;;;;;20.98;48.64;99707.94;5064851;28;20040;-68
2021/06/05 11:02:53;;;;;;;9.88;5.93;;;;;;;20.76;49.43;99704.44;5059238;28;20064;-63
2021/06/05 11:05:44;;;;;;;12.00;6.20;;;;;;;20.53;50.42;99715.91;5068971;28;20064;-63
2021/06/05 11:08:44;;;;;;;13.52;7.15;;;;;;;20.53;50.98;99710.63;5048387;28;20132;-63
2021/06/05 11:11:38;;;;;;;12.75;6.72;;;;;;;20.54;50.77;99713.22;5006440;28;20053;-63
2021/06/05 11:14:20;;;;;;;10.27;6.90;;;;;;;20.34;51.56;99711.34;5006075;28;20397;-63
2021/06/05 11:17:10;;;;;;;11.25;7.40;;;;;;;20.12;52.37;99708.66;5023036;28;20115;-63
2021/06/05 11:19:39;;;;;;;12.23;6.80;;;;;;;20.01;52.37;99705.56;5053727;28;20559;-63
2021/06/05 11:22:06;;;;;;;11.73;6.75;;;;;;;19.93;52.74;99704.97;5054056;28;20045;-63
2021/06/05 11:24:32;;;;;;;10.48;6.15;;;;;;;19.84;53.16;99701.75;5053295;28;20045;-63
2021/06/05 11:26:59;;;;;;;12.02;6.35;;;;;;;19.59;54.31;99696.44;5053363;28;20609;-63
2021/06/05 11:29:48;;;;;;;12.23;5.90;;;;;;;19.52;54.78;99686.16;5054032;28;20044;-63
2021/06/05 11:32:33;;;;;;;10.63;6.07;;;;;;;19.50;55.54;99677.41;5053728;28;20049;-63
2021/06/05 11:35:01;;;;;;;14.93;6.68;;;;;;;19.37;55.79;99669.94;5053380;28;20052;-63
2021/06/05 11:37:52;;;;;;;12.35;7.05;;;;;;;19.45;56.47;99673.16;5053413;28;20190;-64
2021/06/05 11:40:52;;;;;;;12.85;7.53;;;;;;;19.60;56.93;99661.19;5034053;28;20045;-63
2021/06/05 11:43:36;;;;;;;13.95;7.47;;;;;;;19.64;57.00;99656.66;5021660;28;20046;-63
2021/06/05 11:46:04;;;;;;;11.77;7.70;;;;;;;19.71;56.11;99658.13;5033543;28;20447;-63
2021/06/05 11:48:47;;;;;;;12.15;7.97;;;;;;;19.87;54.99;99639.94;5048272;28;20487;-64
2021/06/05 11:51:33;;;;;;;12.00;7.38;;;;;;;19.83;53.57;99633.94;5044319;28;20056;-64
2021/06/05 11:54:01;;;;;;;10.35;6.50;;;;;;;20.08;52.38;99632.13;5053469;28;20553;-64
2021/06/05 11:56:28;;;;;;;10.40;6.20;;;;;;;20.44;52.28;99638.59;5053535;28;20044;-64
2021/06/05 11:58:55;;;;;;;12.38;6.25;;;;;;;20.85;51.14;99648.47;5052887;28;20541;-64
2021/06/05 12:01:23;;;;;;;11.85;6.90;;;;;;;21.35;50.33;99644.59;5052611;28;20048;-63
2021/06/05 12:03:56;;;;;;;13.15;6.68;;;;;;;21.69;48.87;99635.16;5053345;28;20049;-63
2021/06/05 12:06:30;;;;;;;8.80;6.10;;;;;;;22.20;48.12;99631.88;5053554;28;20045;-63
2021/06/05 12:09:04;;;;;;;11.00;6.65;;;;;;;22.32;46.99;99625.16;5052970;28;20048;-63
2021/06/05 12:11:37;;;;;;;11.77;6.47;;;;;;;22.42;47.44;99628.22;5052992;28;20045;-63
2021/06/05 12:14:17;;;;;;;11.82;6.70;;;;;;;22.61;46.92;99628.19;5053255;28;20381;-62
2021/06/05 12:16:53;;;;;;;13.38;7.38;;;;;;;22.74;46.62;99623.09;5052981;28;20052;-62
2021/06/05 12:19:28;;;;;;;12.48;7.00;;;;;;;22.55;46.39;99624.03;5052542;28;20514;-62
2021/06/05 12:21:54;;;;;;;10.77;6.57;;;;;;;21.98;47.21;99626.72;5052525;28;20549;-62
2021/06/05 12:24:23;;;;;;;11.27;6.43;;;;;;;22.09;47.68;99622.69;5053120;28;20083;-62
2021/06/05 12:26:53;;;;;;;10.52;6.45;;;;;;;22.30;47.58;99628.81;5052227;28;20427;-63
2021/06/05 12:29:24;;;;;;;10.80;6.80;;;;;;;22.51;47.07;99619.81;5052245;28;20412;-61
2021/06/05 12:31:51;;;;;;;11.35;6.65;;;;;;;22.67;46.66;99624.38;5052869;28;20124;-60
2021/06/05 12:34:29;;;;;;;11.50;6.50;;;;;;;22.96;46.35;99615.78;5052256;28;20392;-61
2021/06/05 12:36:56;;;;;;;9.52;6.50;;;;;;;22.53;46.16;99598.50;5052820;28;20049;-61
2021/06/05 12:39:26;;;;;;;12.02;6.32;;;;;;;22.26;46.72;99595.41;5052650;28;20075;-62
2021/06/05 12:41:53;;;;;;;9.85;6.75;;;;;;;22.69;46.19;99606.56;5052470;28;20075;-63
2021/06/05 12:44:21;;;;;;;13.57;6.93;;;;;;;23.03;45.81;99594.22;5052317;28;20045;-62
2021/06/05 12:46:47;;;;;;;10.43;6.50;;;;;;;23.08;45.81;99586.88;5052401;28;20102;-62
2021/06/05 12:49:16;;;;;;;10.48;6.78;;;;;;;23.00;45.69;99579.28;5051711;28;20052;-62
2021/06/05 12:51:45;;;;;;;13.13;7.07;;;;;;;23.09;45.88;99580.63;5032730;28;20179;-63
2021/06/05 12:54:12;;;;;;;10.85;6.60;;;;;;;23.67;44.43;99579.31;5051556;28;20045;-62
2021/06/05 12:56:41;;;;;;;11.32;5.80;;;;;;;24.10;41.85;99561.88;5052249;28;20041;-63
2021/06/05 12:59:08;;;;;;;9.88;5.65;;;;;;;24.54;41.58;99562.94;5052149;28;20049;-63
2021/06/05 13:01:37;;;;;;;9.10;5.03;;;;;;;24.43;41.28;99555.53;5051832;28;20053;-64
2021/06/05 13:04:03;;;;;;;9.88;5.60;;;;;;;24.50;41.16;99554.22;5052249;28;20045;-62
2021/06/05 13:06:31;;;;;;;10.27;5.10;;;;;;;24.31;40.21;99561.56;5052317;28;20049;-63
2021/06/05 13:09:15;;;;;;;9.60;5.50;;;;;;;24.16;40.89;99548.19;5052305;28;20045;-63
2021/06/05 13:11:46;;;;;;;9.90;5.53;;;;;;;24.38;41.46;99550.47;5051918;28;20565;-63
2021/06/05 13:14:21;;;;;;;10.32;5.30;;;;;;;24.68;40.97;99543.47;5051364;28;20045;-63
2021/06/05 13:16:49;;;;;;;9.45;6.00;;;;;;;24.48;41.95;99541.94;5052495;28;20459;-62
2021/06/05 13:19:18;;;;;;;10.57;5.78;;;;;;;24.37;42.67;99540.78;5052056;28;20124;-64
2021/06/05 13:21:44;;;;;;;11.30;6.43;;;;;;;24.09;42.92;99545.97;5052228;28;20041;-63
2021/06/05 13:24:12;;;;;;;11.48;6.18;;;;;;;23.70;43.41;99540.09;5051146;28;20058;-62
2021/06/05 13:26:39;;;;;;;9.95;5.80;;;;;;;23.33;44.70;99534.13;5051817;28;20111;-64
2021/06/05 13:29:40;;;;;;;15.40;6.50;;;;;;;23.48;44.20;99526.28;5051831;28;20041;-62
2021/06/05 13:32:07;;;;;;;11.52;6.00;;;;;;;23.37;43.81;99511.75;5052046;28;20049;-62
2021/06/05 13:34:35;;;;;;;10.48;5.80;;;;;;;23.32;44.32;99508.50;5051871;28;20045;-62
2021/06/05 13:37:20;;;;;;;9.82;5.82;;;;;;;23.19;44.36;99502.13;5051899;28;20576;-60
2021/06/05 13:39:47;;;;;;;10.88;5.68;;;;;;;22.89;44.32;99507.25;5051710;28;20415;-61
2021/06/05 13:42:13;;;;;;;9.75;5.60;;;;;;;22.42;44.79;99503.44;5052001;28;20052;-61
2021/06/05 13:44:40;;;;;;;10.75;5.50;;;;;;;22.52;44.68;99499.38;5051931;28;20052;-62
2021/06/05 13:47:07;;;;;;;9.38;5.50;;;;;;;22.34;44.35;99493.22;5048475;28;20049;-62
2021/06/05 13:49:33;;;;;;;17.55;6.75;;;;;;;22.55;46.03;99487.75;5054311;28;20040;-62
2021/06/05 13:52:02;;;;;;;10.45;5.82;;;;;;;22.00;44.41;99494.88;5059925;28;20045;-62
2021/06/05 13:54:28;;;;;;;8.80;5.15;;;;;;;21.98;44.75;99487.91;5057097;28;20052;-62
2021/06/05 13:56:54;;;;;;;9.18;5.50;;;;;;;21.88;44.98;99479.53;5059663;28;20041;-62
2021/06/05 13:59:20;;;;;;;9.32;5.65;;;;;;;21.65;44.89;99483.28;5065526;28;20048;-62
2021/06/05 14:01:48;;;;;;;8.73;5.25;;;;;;;21.52;44.67;99479.50;5050243;28;20045;-60
2021/06/05 14:04:14;;;;;;;9.88;5.28;;;;;;;21.63;44.69;99471.91;5050232;28;20048;-60
2021/06/05 14:06:40;;;;;;;8.73;5.43;;;;;;;21.93;44.44;99472.22;5050220;28;20061;-60
2021/06/05 14:09:07;;;;;;;10.88;5.85;;;;;;;21.85;44.31;99478.81;5058988;28;20049;-62
2021/06/05 14:11:34;;;;;;;9.73;4.97;;;;;;;21.91;44.41;99471.44;5060145;28;20416;-61
2021/06/05 14:14:01;;;;;;;9.40;5.13;;;;;;;22.10;44.60;99463.44;5056816;28;20077;-62
2021/06/05 14:16:28;;;;;;;11.35;5.40;;;;;;;22.13;44.41;99454.44;5055448;28;20049;-62
2021/06/05 14:18:55;;;;;;;9.73;5.25;;;;;;;22.27;44.33;99456.44;5054219;28;20049;-62
2021/06/05 14:21:22;;;;;;;8.43;5.50;;;;;;;22.42;44.07;99455.66;5055176;28;20049;-63
2021/06/05 14:23:48;;;;;;;10.30;5.55;;;;;;;22.47;43.97;99458.06;5055297;28;20129;-62
2021/06/05 14:26:14;;;;;;;10.70;6.00;;;;;;;22.50;44.16;99450.81;5054694;28;20053;-63
2021/06/05 14:28:42;;;;;;;9.52;5.53;;;;;;;22.50;43.87;99445.50;5056332;28;20569;-63
2021/06/05 14:31:09;;;;;;;8.25;5.45;;;;;;;22.33;44.03;99429.56;5054928;28;20045;-62
2021/06/05 14:33:35;;;;;;;10.27;5.75;;;;;;;22.14;44.71;99430.50;5054736;28;20044;-62
2021/06/05 14:36:04;;;;;;;10.68;5.47;;;;;;;22.26;44.66;99438.81;5055229;28;20103;-62
2021/06/05 14:38:33;;;;;;;11.60;5.93;;;;;;;22.15;45.23;99429.53;5053860;28;20484;-62
2021/06/05 14:40:59;;;;;;;10.18;5.93;;;;;;;22.18;45.38;99428.53;5054776;28;20511;-63
2021/06/05 14:43:26;;;;;;;12.63;5.85;;;;;;;22.39;45.38;99423.94;5042398;28;20045;-63
2021/06/05 14:45:53;;;;;;;10.40;5.78;;;;;;;22.49;44.70;99416.34;5035002;28;20049;-63
2021/06/05 14:48:20;;;;;;;10.55;5.57;;;;;;;22.43;45.12;99417.56;5035004;28;20045;-63
2021/06/05 14:50:47;;;;;;;9.88;5.72;;;;;;;22.35;45.08;99411.75;5034848;28;20057;-62
2021/06/05 14:53:16;;;;;;;10.43;6.20;;;;;;;22.32;45.12;99418.09;5035077;28;20409;-62
2021/06/05 14:55:43;;;;;;;13.00;6.60;;;;;;;22.25;45.29;99410.53;5043388;28;20049;-63
2021/06/05 14:58:10;;;;;;;9.90;5.95;;;;;;;22.51;44.85;99407.38;5054643;28;20092;-62
2021/06/05 15:00:36;;;;;;;11.95;6.20;;;;;;;22.25;45.45;99400.78;5054734;28;20107;-62
2021/06/05 15:03:02;;;;;;;9.85;6.03;;;;;;;22.21;45.82;99394.72;5054719;28;20049;-63
2021/06/05 15:05:30;;;;;;;12.77;5.97;;;;;;;22.08;46.09;99403.41;5054311;28;20044;-62
2021/06/05 15:07:56;;;;;;;9.70;6.07;;;;;;;21.85;46.16;99407.19;5054359;28;20045;-62
2021/06/05 15:10:23;;;;;;;9.20;6.05;;;;;;;21.88;45.79;99407.06;5054441;28;20045;-64
2021/06/05 15:12:50;;;;;;;10.10;5.78;;;;;;;21.68;46.64;99413.34;5054483;28;20048;-63
2021/06/05 15:15:16;;;;;;;10.10;6.35;;;;;;;21.74;46.16;99410.41;5054344;28;20053;-63
2021/06/05 15:17:43;;;;;;;9.77;5.78;;;;;;;21.80;46.29;99412.75;5054426;28;20075;-63
2021/06/05 15:20:10;;;;;;;9.43;6.13;;;;;;;21.98;46.00;99406.53;5053888;28;20496;-63
2021/06/05 15:22:37;;;;;;;9.13;5.75;;;;;;;21.92;46.12;99416.56;5054386;28;20056;-63
2021/06/05 15:25:03;;;;;;;10.80;5.68;;;;;;;22.04;46.25;99408.00;5053575;28;20037;-62
2021/06/05 15:27:31;;;;;;;11.27;5.80;;;;;;;21.99;46.18;99397.63;5054231;28;20045;-63
2021/06/05 15:29:57;;;;;;;10.38;5.93;;;;;;;21.96;46.34;99402.22;5053704;28;20052;-63
2021/06/05 15:32:23;;;;;;;11.48;6.05;;;;;;;21.83;46.33;99391.38;5054173;28;20040;-63
2021/06/05 15:34:50;;;;;;;10.77;5.68;;;;;;;21.71;46.39;99399.94;5053283;28;20045;-63
2021/06/05 15:37:16;;;;;;;12.52;5.88;;;;;;;21.47;46.88;99408.16;5054040;28;20467;-63
2021/06/05 15:39:42;;;;;;;10.27;6.07;;;;;;;21.43;47.09;99402.13;5053856;28;20049;-63
2021/06/05 15:42:09;;;;;;;9.82;5.75;;;;;;;21.36;47.37;99405.13;5053781;28;20580;-63
2021/06/05 15:44:36;;;;;;;12.00;6.47;;;;;;;21.14;47.88;99407.94;5053656;28;20049;-63
2021/06/05 15:47:05;;;;;;;10.88;6.47;;;;;;;21.11;48.42;99413.34;5053760;28;20435;-63
2021/06/05 15:49:32;;;;;;;10.45;6.10;;;;;;;20.92;49.27;99418.63;5053501;28;20045;-63
2021/06/05 15:51:58;;;;;;;14.85;6.57;;;;;;;20.75;49.63;99435.31;5053831;28;20041;-63
2021/06/05 15:54:25;;;;;;;11.00;6.07;;;;;;;20.59;50.13;99435.09;5053585;28;20575;-61
2021/06/05 15:56:52;;;;;;;10.20;5.75;;;;;;;20.39;51.30;99433.31;5052904;28;20098;-62
2021/06/05 15:59:18;;;;;;;10.18;6.20;;;;;;;20.13;52.32;99432.63;5053207;28;20041;-62
2021/06/05 16:01:46;;;;;;;11.48;5.35;;;;;;;20.13;53.22;99448.50;5053246;28;20048;-63
2021/06/05 16:04:13;;;;;;;10.23;6.28;;;;;;;19.99;53.69;99448.22;5053304;28;20045;-62
2021/06/05 16:06:40;;;;;;;12.32;6.75;;;;;;;19.98;56.50;99465.88;5053312;28;20044;-62
2021/06/05 16:09:07;;;;;;;10.88;6.90;;;;;;;19.94;57.10;99479.28;5053621;28;20045;-62
2021/06/05 16:11:33;;;;;;;10.38;6.50;;;;;;;19.93;56.55;99509.28;5053481;28;20041;-62
2021/06/05 16:14:02;;;;;;;12.77;6.80;;;;;;;19.90;57.83;99530.56;5053011;28;20044;-62
2021/06/05 16:16:29;;;;;;;11.60;6.72;;;;;;;19.84;57.92;99540.47;5053259;28;20517;-62
2021/06/05 16:18:57;;;;;;;10.00;6.57;;;;;;;19.75;58.73;99550.53;5053090;28;20103;-62
2021/06/05 16:21:25;;;;;;;13.27;7.70;;;;;;;19.59;61.54;99552.88;5052833;28;20049;-62
2021/06/05 16:23:51;;;;;;;16.00;8.40;;;;;;;19.52;64.11;99559.31;5052822;28;20053;-62
2021/06/05 16:26:18;;;;;;;18.10;8.38;;;;;;;19.35;65.09;99539.66;5052298;28;20057;-62
2021/06/05 16:28:45;;;;;;;13.73;8.20;;;;;;;19.25;64.04;99511.84;5052858;28;20190;-63
2021/06/05 16:31:13;;;;;;;33.60;23.92;;;;;;;19.11;64.84;99493.03;5052965;28;20407;-63
2021/06/05 16:33:39;;;;;;;15.52;9.75;;;;;;;18.99;66.25;99489.91;5052902;28;20053;-62
2021/06/05 16:36:08;;;;;;;12.70;8.00;;;;;;;18.79;66.32;99489.75;5052152;28;20072;-62
2021/06/05 16:38:34;;;;;;;14.98;8.77;;;;;;;18.75;66.43;99493.41;5052731;28;20048;-62
2021/06/05 16:41:01;;;;;;;12.55;8.05;;;;;;;18.59;65.79;99506.25;5052502;28;20499;-62
2021/06/05 16:43:29;;;;;;;12.13;8.20;;;;;;;18.52;66.60;99520.59;5052532;28;20045;-61
2021/06/05 16:45:55;;;;;;;15.25;9.15;;;;;;;18.49;67.33;99522.44;5052184;28;20522;-61
2021/06/05 16:48:22;;;;;;;12.95;8.07;;;;;;;18.39;67.18;99514.88;5052546;28;20049;-61
2021/06/05 16:50:50;;;;;;;12.48;8.10;;;;;;;18.37;67.19;99508.78;5052646;28;20068;-62
2021/06/05 16:53:19;;;;;;;11.75;8.02;;;;;;;18.35;68.11;99503.56;5052657;28;20049;-62
2021/06/05 16:55:46;;;;;;;10.80;7.40;;;;;;;18.30;67.01;99495.81;5051814;28;20049;-62
2021/06/05 16:58:13;;;;;;;21.23;15.70;;;;;;;18.32;68.50;99489.59;5051483;28;20055;-62
2021/06/05 17:00:40;;;;;;;12.77;9.13;;;;;;;18.31;68.75;99499.28;5052201;28;20048;-62
2021/06/05 17:03:07;;;;;;;12.32;8.32;;;;;;;18.24;67.75;99480.19;5052183;28;20056;-62
2021/06/05 17:05:33;;;;;;;16.20;8.70;;;;;;;18.24;68.98;99480.19;5052252;28;20470;-63
2021/06/05 17:07:59;;;;;;;12.90;9.32;;;;;;;18.07;69.25;99461.44;5051794;28;20495;-62
2021/06/05 17:10:28;;;;;;;13.30;9.95;;;;;;;18.08;70.28;99457.88;5051905;28;20052;-62
2021/06/05 17:12:54;;;;;;;14.23;10.32;;;;;;;18.14;70.96;99462.06;5052181;28;20049;-62
2021/06/05 17:15:22;;;;;;;14.70;9.52;;;;;;;18.16;70.12;99473.44;5052299;28;20045;-61
2021/06/05 17:17:48;;;;;;;15.38;10.55;;;;;;;18.17;71.37;99483.09;5052071;28;20482;-63
2021/06/05 17:20:16;;;;;;;15.00;9.88;;;;;;;18.12;70.80;99501.69;5052037;28;20132;-63
2021/06/05 17:22:42;;;;;;;14.82;10.13;;;;;;;17.94;71.36;99512.81;5052268;28;20049;-62
2021/06/05 17:25:10;;;;;;;15.13;11.15;;;;;;;17.71;72.03;99530.16;5051699;28;20404;-62
2021/06/05 17:27:38;;;;;;;17.48;11.77;;;;;;;17.55;73.16;99547.38;5051665;28;20122;-62
2021/06/05 17:30:06;;;;;;;14.40;10.48;;;;;;;17.46;73.40;99554.59;5051990;28;20048;-63
2021/06/05 17:32:32;;;;;;;16.27;11.15;;;;;;;17.47;73.68;99566.03;5052251;28;20115;-62
2021/06/05 17:34:58;;;;;;;17.13;11.55;;;;;;;17.41;74.05;99572.34;5051901;28;20071;-62
2021/06/05 17:37:24;;;;;;;17.15;12.25;;;;;;;17.34;75.03;99591.84;5051862;28;20106;-63
2021/06/05 17:39:50;;;;;;;15.45;11.60;;;;;;;17.18;75.31;99591.41;5051828;28;20052;-63
2021/06/05 17:42:17;;;;;;;16.40;11.13;;;;;;;16.88;75.84;99598.34;5051992;28;20045;-62
2021/06/05 17:44:44;;;;;;;16.88;11.52;;;;;;;16.75;76.70;99589.88;5052174;28;20041;-63
2021/06/05 17:47:11;;;;;;;20.48;12.00;;;;;;;16.65;77.43;99585.75;5052260;28;20063;-63
2021/06/05 17:49:37;;;;;;;17.67;12.32;;;;;;;16.63;77.14;99584.91;5055575;28;20048;-62
2021/06/05 17:52:03;;;;;;;16.80;11.20;;;;;;;16.65;76.98;99586.63;5055730;28;20514;-62
2021/06/05 17:54:30;;;;;;;15.07;11.43;;;;;;;16.67;77.07;99576.03;5055344;28;20061;-62
2021/06/05 17:56:57;;;;;;;14.45;10.93;;;;;;;16.73;77.27;99568.00;5055032;28;20041;-62
2021/06/05 17:59:23;;;;;;;15.90;11.35;;;;;;;16.72;76.83;99553.97;5055719;28;20045;-62
2021/06/05 18:01:52;;;;;;;18.25;11.88;;;;;;;16.74;77.00;99539.00;5055750;28;20045;-61
2021/06/05 18:04:19;;;;;;;15.27;10.98;;;;;;;16.70;76.38;99533.88;5055409;28;20079;-62
2021/06/05 18:06:45;;;;;;;15.02;10.73;;;;;;;16.72;77.23;99529.44;5055564;28;20053;-62
2021/06/05 18:09:12;;;;;;;16.90;10.95;;;;;;;16.74;76.81;99528.47;5055384;28;20072;-62
2021/06/05 18:11:40;;;;;;;16.55;11.27;;;;;;;16.73;76.77;99521.50;5055188;28;20079;-62
2021/06/05 18:14:07;;;;;;;14.75;10.50;;;;;;;16.77;76.43;99503.88;5055196;28;20045;-62
2021/06/05 18:16:34;;;;;;;15.70;11.27;;;;;;;16.74;76.87;99467.97;5055519;28;20056;-63
2021/06/05 18:19:03;;;;;;;15.70;11.15;;;;;;;16.73;77.24;99432.06;5054834;28;20103;-62
2021/06/05 18:21:29;;;;;;;16.85;12.50;;;;;;;16.66;78.28;99434.91;5054977;28;20045;-62
2021/06/05 18:23:55;;;;;;;18.25;10.98;;;;;;;16.64;77.97;99458.63;5055171;28;20456;-62
2021/06/05 18:26:22;;;;;;;15.55;10.63;;;;;;;16.66;76.86;99472.59;5054233;28;20420;-63
2021/06/05 18:28:49;;;;;;;15.90;11.38;;;;;;;16.62;77.50;99467.47;5054733;28;20049;-63
2021/06/05 18:31:15;;;;;;;16.20;11.52;;;;;;;16.37;78.61;99468.09;5054894;28;20049;-63
2021/06/05 18:33:42;;;;;;;17.17;11.95;;;;;;;16.38;78.83;99474.22;5055184;28;20530;-62
2021/06/05 18:36:13;;;;;;;16.52;11.35;;;;;;;16.37;78.60;99473.38;5055134;28;20072;-63
2021/06/05 18:38:40;;;;;;;16.52;11.15;;;;;;;16.41;78.24;99471.53;5054847;28;20049;-63
2021/06/05 18:41:08;;;;;;;18.88;12.27;;;;;;;16.41;78.79;99475.00;5055102;28;20045;-62
2021/06/05 18:43:34;;;;;;;16.35;11.25;;;;;;;16.43;77.85;99475.81;5054623;28;20427;-63
2021/06/05 18:46:01;;;;;;;17.02;12.15;;;;;;;16.41;77.40;99482.91;5054957;28;20463;-63
2021/06/05 18:48:28;;;;;;;15.18;10.52;;;;;;;16.40;77.31;99490.81;5054582;28;20053;-62
2021/06/05 18:50:55;;;;;;;15.77;11.93;;;;;;;16.32;77.86;99481.38;5054670;28;20045;-62
2021/06/05 18:53:25;;;;;;;16.70;11.77;;;;;;;16.25;77.81;99477.19;5054615;28;20049;-62
2021/06/05 18:55:52;;;;;;;15.05;11.48;;;;;;;16.20;78.10;99468.53;5054770;28;20056;-63
2021/06/05 18:58:18;;;;;;;16.88;12.13;;;;;;;16.13;78.84;99469.59;5053433;28;20071;-63
2021/06/05 19:00:45;;;;;;;15.77;10.98;;;;;;;16.08;77.22;99468.84;5054771;28;20052;-62
2021/06/05 19:03:11;;;;;;;17.50;13.60;;;;;;;16.05;78.93;99474.16;5054758;28;20045;-63
2021/06/05 19:05:38;;;;;;;17.55;14.05;;;;;;;15.98;78.91;99469.97;5054671;28;20076;-62
2021/06/05 19:08:05;;;;;;;20.90;13.82;;;;;;;15.90;78.83;99480.69;5054057;28;20487;-62
2021/06/05 19:10:32;;;;;;;16.10;12.20;;;;;;;15.85;79.09;99480.75;5054579;28;20049;-62
2021/06/05 19:12:59;;;;;;;16.83;13.38;;;;;;;15.81;78.57;99481.75;5054240;28;20175;-63
2021/06/05 19:15:26;;;;;;;19.05;14.27;;;;;;;15.78;79.98;99484.47;5054508;28;20077;-62
2021/06/05 19:17:53;;;;;;;18.55;14.18;;;;;;;15.72;80.18;99479.28;5054179;28;20056;-62
2021/06/05 19:20:19;;;;;;;15.82;12.40;;;;;;;15.70;80.07;99488.97;5053781;28;20132;-62
2021/06/05 19:22:46;;;;;;;15.93;12.52;;;;;;;15.70;79.21;99479.34;5053744;28;20045;-62
2021/06/05 19:25:16;;;;;;;19.00;14.35;;;;;;;15.67;80.49;99483.81;5054052;28;20144;-61
2021/06/05 19:27:43;;;;;;;17.27;13.55;;;;;;;15.66;80.38;99487.31;5053607;28;20515;-62
2021/06/05 19:30:12;;;;;;;19.42;15.38;;;;;;;15.62;80.79;99485.66;5053819;28;20052;-61